Time;durP1;ratioP1;P1;durP2;ratioP2;P2;SDS_P1;SDS_P2;PMS_P1;PMS_P2;Temp;Humidity;BMP_temperature;BMP_pressure;BME280_temperature;BME280_humidity;BME280_pressure;Samples;Min_cycle;Max_cycle;Signal;HPM_P1;HPM_P2
2022/02/04 00:03:28;;;;;;;6.10;4.60;;;7.90;78.40;;;;;;4994876;28;20500;-48
2022/02/04 00:21:53;;;;;;;5.90;4.57;;;7.70;79.80;;;;;;4999151;28;20452;-48
2022/02/04 00:24:20;;;;;;;5.40;4.70;;;7.70;80.00;;;;;;4997790;28;20460;-49
2022/02/04 00:26:56;;;;;;;5.90;4.70;;;7.70;80.00;;;;;;4999426;28;20467;-49
2022/02/04 00:29:33;;;;;;;6.17;5.13;;;7.80;79.80;;;;;;4996431;28;20524;-49
2022/02/04 00:32:05;;;;;;;7.30;5.53;;;7.80;79.70;;;;;;4997168;28;20449;-48
2022/02/04 00:34:41;;;;;;;10.67;5.33;;;7.80;79.70;;;;;;5016362;28;20453;-49
2022/02/04 00:37:28;;;;;;;6.03;4.60;;;7.80;79.70;;;;;;4991739;28;20445;-49
2022/02/04 00:40:01;;;;;;;6.33;5.13;;;7.80;79.50;;;;;;4998439;28;20533;-48
2022/02/04 00:42:29;;;;;;;5.30;4.70;;;7.80;79.60;;;;;;4998734;28;20498;-48
2022/02/04 00:45:10;;;;;;;7.80;4.80;;;7.80;79.30;;;;;;5003063;28;20461;-48
2022/02/04 00:48:21;;;;;;;5.20;4.60;;;7.80;79.60;;;;;;4997232;28;20476;-49
2022/02/04 00:56:35;;;;;;;5.93;5.10;;;7.80;79.60;;;;;;4990932;28;20450;-49
2022/02/04 01:26:36;;;;;;;4.57;4.00;;;7.80;79.40;;;;;;4998015;28;20513;-48
2022/02/04 01:29:03;;;;;;;5.33;4.50;;;7.80;79.60;;;;;;5003529;28;20491;-49
2022/02/04 01:31:31;;;;;;;4.70;3.40;;;7.80;79.90;;;;;;4994063;28;20449;-49
2022/02/04 01:33:58;;;;;;;5.60;3.63;;;7.90;79.80;;;;;;5025531;28;20533;-49
2022/02/04 01:36:25;;;;;;;5.13;3.87;;;7.90;79.20;;;;;;4996831;28;20487;-47
2022/02/04 01:38:52;;;;;;;4.17;3.67;;;7.90;79.20;;;;;;5001752;28;20912;-48
2022/02/04 01:41:18;;;;;;;4.80;4.30;;;7.90;79.40;;;;;;5001763;28;20496;-49
2022/02/04 01:43:45;;;;;;;3.97;3.57;;;7.90;79.10;;;;;;5002805;28;20459;-49
2022/02/04 01:46:13;;;;;;;12.53;7.20;;;7.90;79.20;;;;;;4998360;28;20517;-47
2022/02/04 01:48:41;;;;;;;6.80;5.10;;;7.90;79.30;;;;;;5016669;28;20489;-48
2022/02/04 01:51:13;;;;;;;5.83;4.40;;;7.90;79.30;;;;;;5005153;28;20469;-48
2022/02/04 01:53:40;;;;;;;3.73;3.43;;;7.90;79.40;;;;;;4998022;28;20461;-48
2022/02/04 01:56:12;;;;;;;4.70;4.10;;;7.90;79.40;;;;;;5001558;28;20965;-48
2022/02/04 01:58:40;;;;;;;6.27;3.90;;;7.80;79.40;;;;;;4998869;28;20563;-48
2022/02/04 02:01:07;;;;;;;4.30;3.40;;;7.80;79.50;;;;;;4993589;28;20521;-48
2022/02/04 02:03:34;;;;;;;5.37;3.63;;;7.80;79.50;;;;;;4994248;28;20472;-48
2022/02/04 02:06:07;;;;;;;5.63;4.03;;;7.80;79.70;;;;;;4996715;28;20529;-49
2022/02/04 02:08:34;;;;;;;5.27;3.30;;;7.80;79.40;;;;;;4987290;28;20483;-48
2022/02/04 02:11:00;;;;;;;4.37;3.60;;;7.80;79.60;;;;;;4998465;28;20471;-49
2022/02/04 02:35:52;;;;;;;4.30;3.57;;;7.80;80.20;;;;;;4992950;28;20536;-48
2022/02/04 02:39:12;;;;;;;4.77;3.40;;;7.80;80.30;;;;;;4989664;28;20470;-49
2022/02/04 02:43:55;;;;;;;5.70;3.73;;;7.80;80.80;;;;;;4980589;28;20469;-49
2022/02/04 02:47:35;;;;;;;6.03;5.43;;;7.70;80.80;;;;;;5021543;28;20470;-48
2022/02/04 02:52:40;;;;;;;10.70;8.10;;;7.80;80.90;;;;;;4995373;28;20466;-48
2022/02/04 03:01:07;;;;;;;5.50;4.33;;;7.70;81.10;;;;;;5000469;28;20940;-49
2022/02/04 03:03:06;;;;;;;5.40;3.80;;;7.70;81.10;;;;;;4989401;28;20462;-49
2022/02/04 03:05:33;;;;;;;5.87;3.40;;;7.70;81.10;;;;;;4999077;28;20449;-48
2022/02/04 03:08:00;;;;;;;4.90;4.40;;;7.70;81.20;;;;;;4993771;28;20458;-48
2022/02/04 03:10:27;;;;;;;4.53;3.87;;;7.70;81.30;;;;;;4999470;28;20457;-49
2022/02/04 03:12:54;;;;;;;8.40;4.93;;;7.70;81.30;;;;;;4995538;28;20496;-49
2022/02/04 03:15:21;;;;;;;4.80;4.10;;;7.70;81.20;;;;;;4999571;28;20494;-49
2022/02/04 03:17:59;;;;;;;7.70;4.00;;;7.70;81.20;;;;;;4994531;28;20457;-48
2022/02/04 03:20:26;;;;;;;6.83;4.63;;;7.80;81.10;;;;;;4991564;28;20544;-48
2022/02/04 03:22:54;;;;;;;6.60;4.87;;;7.70;81.10;;;;;;4990350;28;20492;-48
2022/02/04 03:25:23;;;;;;;7.67;5.07;;;7.70;81.20;;;;;;4992789;28;20465;-49
2022/02/04 03:27:55;;;;;;;6.50;4.40;;;7.70;81.30;;;;;;4990193;28;20451;-48
2022/02/04 03:30:29;;;;;;;6.43;5.10;;;7.70;81.40;;;;;;4991355;28;20474;-48
2022/02/04 03:33:01;;;;;;;8.70;5.30;;;7.70;81.70;;;;;;4995957;28;20460;-49
2022/02/04 03:35:28;;;;;;;7.27;5.10;;;7.70;82.10;;;;;;5001532;28;20837;-48
2022/02/04 03:37:56;;;;;;;9.83;6.07;;;7.60;82.40;;;;;;4996983;28;20454;-48
2022/02/04 03:40:24;;;;;;;6.07;4.60;;;7.70;82.30;;;;;;4996856;28;20461;-49
2022/02/04 03:42:51;;;;;;;5.67;5.10;;;7.70;82.30;;;;;;5000112;28;21143;-49
2022/02/04 03:45:20;;;;;;;6.20;5.10;;;7.70;82.50;;;;;;4997682;28;20457;-48
2022/02/04 03:47:46;;;;;;;6.80;5.20;;;7.80;82.30;;;;;;4997915;28;20538;-49
2022/02/04 03:50:13;;;;;;;6.87;5.00;;;7.80;82.10;;;;;;4993250;28;20490;-48
2022/02/04 03:52:41;;;;;;;26.27;8.20;;;7.80;82.30;;;;;;4985787;28;20464;-47
2022/02/04 03:55:09;;;;;;;8.43;6.30;;;7.80;82.30;;;;;;4993087;28;20457;-48
2022/02/04 03:57:36;;;;;;;8.70;6.10;;;7.80;82.40;;;;;;4994891;28;21316;-49
2022/02/04 04:00:05;;;;;;;9.90;7.00;;;7.80;81.90;;;;;;4995895;28;20473;-49
2022/02/04 04:02:32;;;;;;;5.87;5.20;;;7.80;81.80;;;;;;4991483;28;20465;-48
2022/02/04 04:04:59;;;;;;;7.93;6.40;;;7.80;81.80;;;;;;4994869;28;20468;-48
2022/02/04 04:07:26;;;;;;;9.73;6.53;;;7.80;81.80;;;;;;5029142;28;20454;-49
2022/02/04 04:10:00;;;;;;;7.00;5.77;;;7.80;82.00;;;;;;4992915;28;20488;-48
2022/02/04 04:12:30;;;;;;;8.10;6.33;;;7.70;82.30;;;;;;4994322;28;20454;-48
2022/02/04 04:15:05;;;;;;;7.00;5.40;;;7.70;82.30;;;;;;4993503;28;20544;-49
2022/02/04 04:17:39;;;;;;;9.30;6.57;;;7.70;82.40;;;;;;4985052;28;20458;-48
2022/02/04 04:20:08;;;;;;;8.33;5.83;;;7.70;82.60;;;;;;5002119;28;20449;-48
2022/02/04 04:22:35;;;;;;;8.50;5.70;;;7.80;82.30;;;;;;4996161;28;20481;-48
2022/02/04 04:25:03;;;;;;;8.53;6.20;;;7.80;82.30;;;;;;4994148;28;20462;-48
2022/02/04 04:27:31;;;;;;;8.10;6.37;;;7.80;82.30;;;;;;4984333;28;20540;-49
2022/02/04 04:29:57;;;;;;;8.00;6.40;;;7.80;82.40;;;;;;4995692;28;20491;-48
2022/02/04 04:32:24;;;;;;;8.77;7.03;;;7.80;82.30;;;;;;4993313;28;20461;-48
2022/02/04 04:34:51;;;;;;;9.83;6.10;;;7.80;82.10;;;;;;4993482;28;20454;-48
2022/02/04 04:37:18;;;;;;;9.27;7.20;;;7.80;82.10;;;;;;4994077;28;20472;-48
2022/02/04 04:39:59;;;;;;;7.30;5.10;;;7.80;82.30;;;;;;4993499;28;20461;-48
2022/02/04 05:29:15;;;;;;;6.07;5.07;;;7.80;83.20;;;;;;4995699;28;20489;-49
2022/02/04 05:31:43;;;;;;;7.60;5.37;;;7.80;83.10;;;;;;4994183;28;20460;-49
2022/02/04 05:34:10;;;;;;;8.30;5.50;;;7.80;82.70;;;;;;4986099;28;20512;-49
2022/02/04 05:36:42;;;;;;;9.40;5.57;;;7.80;82.80;;;;;;4991138;28;20472;-49
2022/02/04 05:39:11;;;;;;;9.93;5.97;;;7.80;82.70;;;;;;5001029;28;20453;-48
2022/02/04 05:41:41;;;;;;;8.83;6.07;;;7.80;82.80;;;;;;4994641;28;20951;-48
2022/02/04 05:44:13;;;;;;;9.33;6.50;;;7.80;82.80;;;;;;4993051;28;20901;-49
2022/02/04 05:47:05;;;;;;;6.60;4.57;;;7.80;82.70;;;;;;4996334;28;20457;-48
2022/02/04 05:49:34;;;;;;;8.33;5.27;;;7.80;82.70;;;;;;4984681;28;20518;-49
2022/02/04 05:52:11;;;;;;;7.07;5.50;;;7.80;83.00;;;;;;4996497;28;20448;-49
2022/02/04 05:57:16;;;;;;;5.80;4.57;;;7.80;82.90;;;;;;5000608;28;20950;-50
2022/02/04 06:02:34;;;;;;;5.70;4.47;;;7.80;82.60;;;;;;4997066;28;20472;-47
2022/02/04 06:05:24;;;;;;;6.23;4.87;;;7.80;82.50;;;;;;4996121;28;20561;-50
2022/02/04 06:23:57;;;;;;;6.53;4.77;;;7.80;82.50;;;;;;4994022;28;20559;-49
2022/02/04 06:26:24;;;;;;;8.80;5.57;;;7.80;82.60;;;;;;4998951;28;21038;-48
2022/02/04 06:28:51;;;;;;;6.13;4.70;;;7.80;82.90;;;;;;4995345;28;20541;-48
2022/02/04 06:31:21;;;;;;;5.87;4.63;;;7.80;82.80;;;;;;4999642;28;20469;-48
2022/02/04 06:33:48;;;;;;;9.23;5.53;;;7.80;82.90;;;;;;4991722;28;20480;-48
2022/02/04 06:36:14;;;;;;;6.77;5.30;;;7.80;83.20;;;;;;4994875;28;20473;-48
2022/02/04 06:38:41;;;;;;;5.57;4.20;;;7.80;82.90;;;;;;5020817;28;20460;-48
2022/02/04 06:41:08;;;;;;;7.17;5.17;;;7.80;82.90;;;;;;4998832;28;20460;-49
2022/02/04 06:43:38;;;;;;;9.30;5.47;;;7.80;83.10;;;;;;4996368;28;20460;-50
2022/02/04 06:46:05;;;;;;;6.70;5.07;;;7.80;82.90;;;;;;4993558;28;20585;-49
2022/02/04 06:48:32;;;;;;;6.23;4.83;;;7.80;82.60;;;;;;4989788;28;20468;-49
2022/02/04 06:50:58;;;;;;;7.43;5.23;;;7.80;82.60;;;;;;4997824;28;20481;-48
2022/02/04 06:53:25;;;;;;;5.93;4.70;;;7.80;82.80;;;;;;4997031;28;20496;-49
2022/02/04 06:55:52;;;;;;;6.83;5.23;;;7.80;83.10;;;;;;4993173;28;20504;-49
2022/02/04 06:58:19;;;;;;;6.83;5.23;;;7.90;82.70;;;;;;4996231;28;20533;-49
2022/02/04 07:00:46;;;;;;;6.93;5.77;;;7.90;82.50;;;;;;4995646;28;20946;-48
2022/02/04 07:03:13;;;;;;;9.37;6.33;;;7.90;82.40;;;;;;4993235;28;20519;-48
2022/02/04 07:05:54;;;;;;;9.60;6.90;;;7.90;82.60;;;;;;4991601;28;20482;-49
2022/02/04 07:08:43;;;;;;;7.83;6.70;;;7.90;82.50;;;;;;4997906;28;20496;-49
2022/02/04 07:14:04;;;;;;;9.00;7.17;;;7.90;82.50;;;;;;4996256;28;20957;-50
2022/02/04 07:16:36;;;;;;;11.27;6.30;;;7.90;82.40;;;;;;5000305;28;20456;-48
2022/02/04 07:21:48;;;;;;;9.80;7.33;;;7.90;82.50;;;;;;4996859;28;20467;-50
2022/02/04 07:24:14;;;;;;;15.87;10.07;;;7.90;82.30;;;;;;4997451;28;20499;-50
2022/02/04 07:26:41;;;;;;;9.90;6.87;;;7.90;82.10;;;;;;4999109;28;20541;-50
2022/02/04 07:29:13;;;;;;;10.03;7.20;;;7.90;82.10;;;;;;5024329;28;20448;-50
2022/02/04 07:31:41;;;;;;;9.40;7.43;;;7.90;82.20;;;;;;4999447;28;20462;-50
2022/02/04 07:34:22;;;;;;;10.37;7.80;;;7.90;82.50;;;;;;4998603;28;20481;-49
2022/02/04 07:42:01;;;;;;;11.20;7.90;;;7.90;82.60;;;;;;4995118;28;20471;-50
2022/02/04 07:44:28;;;;;;;11.00;8.07;;;7.90;82.90;;;;;;4988611;28;20510;-49
2022/02/04 07:46:56;;;;;;;9.60;7.93;;;8.00;82.70;;;;;;4995008;28;20465;-48
2022/02/04 07:49:22;;;;;;;9.87;7.00;;;8.00;82.70;;;;;;5000347;28;20552;-49
2022/02/04 07:51:49;;;;;;;9.53;7.93;;;8.00;82.70;;;;;;4998495;28;20457;-49
2022/02/04 07:54:16;;;;;;;10.20;7.50;;;8.00;82.60;;;;;;4997000;28;20469;-50
2022/02/04 07:56:43;;;;;;;9.20;7.63;;;8.00;82.80;;;;;;4994575;28;20457;-49
2022/02/04 07:59:10;;;;;;;9.40;7.00;;;8.00;82.90;;;;;;4993999;28;20548;-49
2022/02/04 08:01:37;;;;;;;9.83;6.63;;;8.00;82.60;;;;;;5001521;28;20477;-49
2022/02/04 08:04:25;;;;;;;13.50;7.40;;;8.00;82.50;;;;;;4996028;28;20484;-48
2022/02/04 08:07:04;;;;;;;12.60;7.30;;;8.10;82.30;;;;;;4991290;28;20475;-50
2022/02/04 08:12:27;;;;;;;10.20;7.30;;;8.00;82.50;;;;;;4997720;28;20951;-49
2022/02/04 08:15:18;;;;;;;7.93;5.80;;;8.00;82.40;;;;;;4993994;28;20467;-48
2022/02/04 08:33:52;;;;;;;7.90;5.87;;;8.10;81.70;;;;;;4995463;28;20461;-48
2022/02/04 08:36:51;;;;;;;11.27;6.93;;;8.20;81.70;;;;;;4995671;28;20540;-49
2022/02/04 08:46:28;;;;;;;6.80;4.40;;;8.20;81.50;;;;;;4996149;28;20999;-48
2022/02/04 08:50:36;;;;;;;8.50;5.10;;;8.30;81.10;;;;;;4997585;28;20986;-49
2022/02/04 08:55:49;;;;;;;7.47;4.30;;;8.20;81.40;;;;;;4994024;28;20472;-49
2022/02/04 09:06:19;;;;;;;5.50;4.40;;;8.30;81.80;;;;;;4985562;28;20904;-46
2022/02/04 09:08:59;;;;;;;4.47;3.43;;;8.40;81.90;;;;;;4982677;28;20461;-46
2022/02/04 09:11:46;;;;;;;11.83;7.70;;;8.40;82.20;;;;;;4978343;28;20496;-46
2022/02/04 09:17:17;;;;;;;4.20;3.80;;;8.40;82.40;;;;;;4992183;28;20453;-50
2022/02/04 09:24:50;;;;;;;4.53;3.87;;;8.50;82.40;;;;;;4973767;28;20546;-46
2022/02/04 09:27:17;;;;;;;5.90;4.40;;;8.50;82.20;;;;;;4981195;28;20465;-46
2022/02/04 09:29:44;;;;;;;5.17;4.67;;;8.50;82.40;;;;;;4982245;28;20980;-46
2022/02/04 09:32:11;;;;;;;6.53;4.23;;;8.50;82.60;;;;;;4992019;28;20483;-46
2022/02/04 09:34:37;;;;;;;5.43;4.13;;;8.50;82.50;;;;;;4979802;28;20462;-46
2022/02/04 09:37:24;;;;;;;5.60;4.63;;;8.50;82.70;;;;;;4981746;28;20454;-47
2022/02/04 09:39:51;;;;;;;5.33;4.30;;;8.40;82.90;;;;;;4981641;28;20461;-47
2022/02/04 09:42:17;;;;;;;5.00;4.20;;;8.40;82.90;;;;;;4983040;28;20458;-47
2022/02/04 09:44:48;;;;;;;5.17;3.70;;;8.50;82.90;;;;;;4983841;28;20552;-47
2022/02/04 09:47:26;;;;;;;6.17;4.00;;;8.50;82.80;;;;;;4984759;28;20925;-46
2022/02/04 09:50:10;;;;;;;10.63;5.00;;;8.50;82.70;;;;;;4986665;28;20536;-47
2022/02/04 10:07:27;;;;;;;5.20;4.57;;;8.60;82.10;;;;;;4982727;28;20500;-46
2022/02/04 10:15:26;;;;;;;5.13;3.60;;;8.70;81.70;;;;;;4988460;28;20469;-50
2022/02/04 10:18:06;;;;;;;4.40;3.33;;;8.70;81.50;;;;;;4991629;28;20465;-50
2022/02/04 10:20:34;;;;;;;4.60;3.20;;;8.70;81.60;;;;;;4986935;28;20456;-50
2022/02/04 10:23:01;;;;;;;3.37;3.07;;;8.60;81.90;;;;;;4986613;28;20552;-50
2022/02/04 10:25:31;;;;;;;4.07;3.67;;;8.60;82.50;;;;;;5015703;28;20553;-49
2022/02/04 10:28:29;;;;;;;4.13;3.20;;;8.60;82.70;;;;;;4986754;28;20463;-49
2022/02/04 10:31:20;;;;;;;3.33;2.90;;;8.60;82.70;;;;;;4988441;28;20981;-51
2022/02/04 10:34:04;;;;;;;3.57;3.03;;;8.60;82.80;;;;;;4981778;28;20449;-49
2022/02/04 10:36:32;;;;;;;2.90;2.63;;;8.60;82.60;;;;;;4978443;28;20462;-49
2022/02/04 10:38:58;;;;;;;4.90;2.70;;;8.60;82.30;;;;;;4984225;28;20461;-50
2022/02/04 10:41:33;;;;;;;2.93;2.40;;;8.60;82.40;;;;;;4987299;28;20815;-49
2022/02/04 10:44:08;;;;;;;4.17;2.53;;;8.60;82.50;;;;;;4986106;28;20457;-49
2022/02/04 10:46:47;;;;;;;2.90;2.70;;;8.60;82.40;;;;;;4986953;28;20975;-49
2022/02/04 11:00:08;;;;;;;3.03;2.40;;;8.60;82.40;;;;;;4985179;28;20468;-49
2022/02/04 11:10:17;;;;;;;2.80;2.00;;;8.70;81.80;;;;;;4986204;28;20474;-49
2022/02/04 11:55:11;;;;;;;2.80;2.20;;;9.10;78.10;;;;;;4984032;28;20464;-47
2022/02/04 11:57:57;;;;;;;2.50;1.60;;;9.10;78.40;;;;;;4981413;28;20972;-47
2022/02/04 12:00:31;;;;;;;2.97;1.67;;;9.10;77.50;;;;;;5011971;28;20453;-47
2022/02/04 12:02:58;;;;;;;2.60;1.60;;;9.10;77.80;;;;;;4978840;28;23612;-47
2022/02/04 12:05:26;;;;;;;1.47;1.37;;;9.20;78.20;;;;;;5009101;28;20473;-47
2022/02/04 12:07:53;;;;;;;3.20;1.60;;;9.20;77.70;;;;;;4984586;28;20553;-50
2022/02/04 12:10:26;;;;;;;1.97;1.70;;;9.30;77.90;;;;;;4993262;28;20462;-49
2022/02/04 12:12:56;;;;;;;2.13;1.93;;;9.30;77.40;;;;;;4996463;28;20532;-50
2022/02/04 12:15:30;;;;;;;6.47;2.53;;;9.30;77.40;;;;;;4991953;28;20459;-47
2022/02/04 12:18:20;;;;;;;1.70;1.60;;;9.40;77.30;;;;;;4980231;28;20461;-47
2022/02/04 12:21:05;;;;;;;3.30;2.17;;;9.40;77.20;;;;;;4982503;28;20464;-47
2022/02/04 12:23:32;;;;;;;3.00;2.47;;;9.40;77.30;;;;;;4981496;28;20511;-47
2022/02/04 12:26:08;;;;;;;2.27;1.90;;;9.40;77.40;;;;;;4978950;28;20496;-46
2022/02/04 12:28:51;;;;;;;2.43;2.17;;;9.40;77.30;;;;;;5005931;28;20474;-46
2022/02/04 12:31:25;;;;;;;5.87;2.20;;;9.40;77.40;;;;;;4981263;28;20497;-46
2022/02/04 12:34:12;;;;;;;2.40;2.20;;;9.40;77.40;;;;;;4982333;28;20461;-46
2022/02/04 12:36:40;;;;;;;8.97;2.63;;;9.40;77.10;;;;;;4982478;28;20714;-47
2022/02/04 12:39:09;;;;;;;7.10;2.50;;;9.40;77.50;;;;;;4981688;28;20464;-47
2022/02/04 12:41:40;;;;;;;1.80;1.67;;;9.40;77.50;;;;;;4984201;28;20461;-46
2022/02/04 12:44:15;;;;;;;2.53;1.60;;;9.40;76.90;;;;;;4978494;28;20470;-46
2022/02/04 12:46:44;;;;;;;1.60;1.50;;;9.40;77.00;;;;;;4975362;28;20926;-46
2022/02/04 12:49:16;;;;;;;3.00;1.43;;;9.40;76.40;;;;;;4977788;28;20479;-46
2022/02/04 12:54:33;;;;;;;5.40;2.13;;;9.30;76.30;;;;;;4981262;28;20469;-46
2022/02/04 13:08:42;;;;;;;2.47;1.53;;;9.20;76.60;;;;;;4984869;28;20487;-47
2022/02/04 13:11:13;;;;;;;3.83;2.50;;;9.30;76.50;;;;;;4987106;28;21014;-47
2022/02/04 13:13:49;;;;;;;2.37;1.80;;;9.20;76.80;;;;;;4982820;28;20464;-47
2022/02/04 13:16:29;;;;;;;1.80;1.70;;;9.20;76.50;;;;;;4975703;28;20467;-47
2022/02/04 13:19:02;;;;;;;3.60;2.17;;;9.20;76.30;;;;;;5007323;28;20461;-47
2022/02/04 13:21:30;;;;;;;2.13;1.93;;;9.20;76.60;;;;;;5015194;28;20501;-47
2022/02/04 13:24:05;;;;;;;2.50;1.70;;;9.10;76.60;;;;;;4984990;28;20514;-47
2022/02/04 13:26:34;;;;;;;1.60;1.50;;;9.10;77.00;;;;;;4982020;28;20460;-46
2022/02/04 13:29:04;;;;;;;2.50;1.90;;;9.00;77.30;;;;;;4998892;28;21028;-50
2022/02/04 13:31:35;;;;;;;2.40;1.83;;;8.90;77.50;;;;;;5020771;28;20580;-51
2022/02/04 13:34:10;;;;;;;2.70;2.50;;;8.90;77.80;;;;;;4994711;28;20544;-49
2022/02/04 13:36:45;;;;;;;2.67;2.10;;;8.90;77.90;;;;;;5000463;28;20452;-48
2022/02/04 13:39:34;;;;;;;2.20;1.80;;;8.90;78.00;;;;;;4997177;28;20513;-48
2022/02/04 13:44:51;;;;;;;6.70;4.70;;;8.90;78.00;;;;;;5000265;28;20449;-49
2022/02/04 13:57:56;;;;;;;2.53;2.00;;;8.80;79.40;;;;;;4990659;28;20450;-50
2022/02/04 14:00:38;;;;;;;1.70;1.57;;;8.70;79.50;;;;;;5018743;28;20463;-50
2022/02/04 14:03:39;;;;;;;1.73;1.60;;;8.70;79.00;;;;;;4988536;28;20485;-49
2022/02/04 14:06:12;;;;;;;2.37;2.17;;;8.80;78.50;;;;;;4972555;28;20461;-49
2022/02/04 14:08:53;;;;;;;1.30;1.20;;;8.70;78.50;;;;;;4989339;28;20461;-49
2022/02/04 14:11:32;;;;;;;1.73;1.40;;;8.80;78.20;;;;;;4984865;28;20512;-49
2022/02/04 14:14:20;;;;;;;1.73;1.63;;;8.80;78.80;;;;;;4986949;28;20535;-49
2022/02/04 14:17:01;;;;;;;2.50;1.70;;;8.80;78.00;;;;;;4998395;28;20481;-49
2022/02/04 14:19:28;;;;;;;1.27;1.20;;;8.80;78.10;;;;;;4990842;28;20495;-49
2022/02/04 14:21:57;;;;;;;1.90;1.80;;;8.90;77.90;;;;;;4990668;28;20464;-48
2022/02/04 14:24:24;;;;;;;1.50;1.40;;;8.90;78.10;;;;;;4986627;28;20461;-49
2022/02/04 14:26:52;;;;;;;1.53;1.43;;;8.90;77.70;;;;;;5012596;28;21220;-50
2022/02/04 14:29:27;;;;;;;1.50;1.40;;;8.90;77.50;;;;;;4990568;28;20537;-49
2022/02/04 14:32:03;;;;;;;1.70;1.50;;;8.90;77.70;;;;;;4986900;28;20997;-50
2022/02/04 14:53:45;;;;;;;1.40;1.30;;;9.00;77.10;;;;;;4985175;28;20959;-49
2022/02/04 15:01:57;;;;;;;1.33;1.23;;;9.00;77.20;;;;;;4993368;28;20963;-50
2022/02/04 15:04:49;;;;;;;0.90;0.90;;;9.00;77.40;;;;;;4988237;28;20954;-50
2022/02/04 15:07:17;;;;;;;1.73;0.90;;;9.00;77.40;;;;;;4985022;28;21007;-49
2022/02/04 15:09:53;;;;;;;1.30;1.27;;;9.00;77.40;;;;;;4976048;28;20973;-49
2022/02/04 15:12:21;;;;;;;1.47;1.33;;;9.00;77.60;;;;;;4983499;28;20501;-49
2022/02/04 15:14:48;;;;;;;1.07;0.90;;;9.00;77.40;;;;;;4982033;28;20469;-49
2022/02/04 15:17:15;;;;;;;1.80;1.50;;;9.00;77.50;;;;;;4982124;28;20929;-49
2022/02/04 15:19:44;;;;;;;1.30;0.97;;;9.00;77.80;;;;;;4994740;28;20458;-49
2022/02/04 15:22:13;;;;;;;5.90;2.37;;;9.00;78.30;;;;;;4988019;28;20461;-49
2022/02/04 15:24:40;;;;;;;0.97;0.90;;;9.10;78.50;;;;;;4984018;28;20902;-49
2022/02/04 15:27:07;;;;;;;1.40;1.00;;;9.10;78.90;;;;;;4981168;28;20537;-48
2022/02/04 15:29:39;;;;;;;1.27;1.20;;;9.10;78.80;;;;;;4984487;28;20461;-47
2022/02/04 15:32:06;;;;;;;2.30;1.40;;;9.10;79.10;;;;;;4984079;28;20868;-46
2022/02/04 15:34:34;;;;;;;0.97;0.97;;;9.10;79.50;;;;;;4981506;28;20463;-49
2022/02/04 15:37:01;;;;;;;1.13;1.07;;;9.00;79.80;;;;;;4980310;28;20560;-48
2022/02/04 15:39:29;;;;;;;1.30;1.20;;;9.00;79.70;;;;;;4983591;28;21047;-47
2022/02/04 15:42:06;;;;;;;3.57;1.40;;;9.00;80.20;;;;;;4981260;28;20545;-46
2022/02/04 15:47:18;;;;;;;1.60;1.50;;;9.00;79.80;;;;;;4982109;28;20951;-47
2022/02/04 15:53:01;;;;;;;2.27;1.90;;;9.00;80.60;;;;;;4979679;28;21007;-47
2022/02/04 15:57:53;;;;;;;1.10;1.00;;;9.00;80.20;;;;;;4981983;28;20500;-47
2022/02/04 16:06:14;;;;;;;0.97;0.97;;;8.90;79.90;;;;;;4924829;29;20999;-47
2022/02/04 16:08:41;;;;;;;1.50;1.40;;;8.90;79.90;;;;;;4949334;28;21140;-46
2022/02/04 16:11:29;;;;;;;1.80;1.20;;;8.80;80.30;;;;;;4982649;28;20938;-47
2022/02/04 16:16:44;;;;;;;2.73;2.53;;;8.80;80.70;;;;;;4978160;28;20473;-47
2022/02/04 16:29:52;;;;;;;1.70;1.60;;;8.80;80.90;;;;;;4979201;28;20913;-47
2022/02/04 16:32:19;;;;;;;1.23;1.13;;;8.70;81.10;;;;;;4982590;28;20500;-47
2022/02/04 16:34:55;;;;;;;1.07;1.07;;;8.70;81.30;;;;;;4980772;28;20481;-46
2022/02/04 16:40:14;;;;;;;2.07;1.20;;;8.70;81.60;;;;;;4981401;28;20449;-46
2022/02/04 16:42:42;;;;;;;1.10;1.10;;;8.70;81.50;;;;;;4983764;28;20480;-47
2022/02/04 16:45:10;;;;;;;1.20;1.10;;;8.70;81.60;;;;;;4980258;28;20453;-46
2022/02/04 16:47:36;;;;;;;1.73;1.17;;;8.70;81.60;;;;;;4977930;28;20823;-47
2022/02/04 16:50:06;;;;;;;1.20;1.10;;;8.70;81.70;;;;;;4983157;28;20528;-47
2022/02/04 16:52:32;;;;;;;0.83;0.83;;;8.70;81.80;;;;;;4969658;28;20495;-47
2022/02/04 16:54:59;;;;;;;1.37;1.27;;;8.70;82.10;;;;;;4981547;28;20482;-47
2022/02/04 16:57:28;;;;;;;1.33;1.13;;;8.70;82.00;;;;;;4977372;28;20556;-47
2022/02/04 17:00:07;;;;;;;1.67;1.27;;;8.70;82.20;;;;;;4978789;28;20927;-47
2022/02/04 17:02:35;;;;;;;3.00;1.17;;;8.70;82.20;;;;;;4982517;28;20465;-46
2022/02/04 17:05:02;;;;;;;1.47;1.30;;;8.70;82.10;;;;;;4982712;28;20495;-46
2022/02/04 17:07:34;;;;;;;2.67;2.30;;;8.70;82.10;;;;;;4980671;28;20523;-46
2022/02/04 17:10:02;;;;;;;4.10;3.33;;;8.70;81.90;;;;;;4979385;28;20569;-46
2022/02/04 17:12:40;;;;;;;1.63;1.53;;;8.70;81.90;;;;;;4984324;28;20489;-49
2022/02/04 17:15:10;;;;;;;1.03;0.93;;;8.70;81.70;;;;;;4979739;28;20516;-49
2022/02/04 17:17:37;;;;;;;1.37;1.20;;;8.70;81.80;;;;;;4986575;28;20497;-49
2022/02/04 17:20:09;;;;;;;1.10;1.10;;;8.70;81.80;;;;;;4981573;28;20482;-49
2022/02/04 17:22:37;;;;;;;0.97;0.93;;;8.70;81.80;;;;;;4985527;28;20814;-49
2022/02/04 17:25:09;;;;;;;1.10;1.00;;;8.60;81.90;;;;;;4980408;28;20537;-49
2022/02/04 17:27:37;;;;;;;1.03;1.03;;;8.60;82.00;;;;;;4986535;28;20500;-50
2022/02/04 17:30:07;;;;;;;1.17;1.03;;;8.70;81.60;;;;;;4983426;28;20458;-50
2022/02/04 17:32:34;;;;;;;1.30;1.20;;;8.70;81.90;;;;;;4981690;28;21229;-50
2022/02/04 17:35:00;;;;;;;2.60;1.00;;;8.70;82.10;;;;;;4983838;28;21305;-50
2022/02/04 17:37:27;;;;;;;1.40;0.90;;;8.70;82.00;;;;;;4996981;28;20461;-50
2022/02/04 17:39:55;;;;;;;1.60;1.50;;;8.70;82.20;;;;;;4986229;28;20958;-48
2022/02/04 17:42:24;;;;;;;1.93;1.60;;;8.70;82.60;;;;;;4997679;28;20560;-49
2022/02/04 17:44:52;;;;;;;1.17;0.80;;;8.70;82.40;;;;;;4995747;28;20493;-49
2022/02/04 17:47:24;;;;;;;1.00;1.00;;;8.70;82.60;;;;;;4997174;28;20546;-49
2022/02/04 17:50:00;;;;;;;3.90;1.10;;;8.70;82.40;;;;;;4994022;28;20571;-50
2022/02/04 17:52:46;;;;;;;1.00;0.87;;;8.70;82.60;;;;;;4998375;28;20495;-48
2022/02/04 17:55:18;;;;;;;3.53;1.20;;;8.70;82.60;;;;;;5001828;28;20472;-48
2022/02/04 18:08:09;;;;;;;2.20;2.00;;;8.80;82.00;;;;;;4998708;28;20476;-49
2022/02/04 18:10:37;;;;;;;1.30;1.20;;;8.80;81.90;;;;;;4996670;28;20461;-49
2022/02/04 18:13:05;;;;;;;1.53;1.23;;;8.80;81.90;;;;;;5002525;28;20513;-49
2022/02/04 18:15:32;;;;;;;1.40;1.30;;;8.80;82.10;;;;;;4985084;28;20556;-48
2022/02/04 18:17:59;;;;;;;1.30;1.20;;;8.80;82.70;;;;;;5002994;28;20441;-49
2022/02/04 18:20:25;;;;;;;1.40;1.20;;;8.80;82.70;;;;;;4997287;28;20468;-48
2022/02/04 18:22:53;;;;;;;1.30;1.20;;;8.80;82.80;;;;;;4996276;28;20951;-49
2022/02/04 18:25:20;;;;;;;1.00;1.00;;;8.80;82.80;;;;;;5008110;28;20462;-49
2022/02/04 18:27:48;;;;;;;2.30;1.20;;;8.80;82.90;;;;;;4998895;28;20532;-48
2022/02/04 18:30:17;;;;;;;1.60;1.50;;;8.90;83.10;;;;;;5002772;28;20533;-48
2022/02/04 18:32:47;;;;;;;1.83;1.30;;;8.90;83.20;;;;;;4992481;28;20488;-49
2022/02/04 18:35:16;;;;;;;1.53;1.00;;;8.80;83.70;;;;;;4997444;28;20472;-49
2022/02/04 18:37:49;;;;;;;1.50;1.40;;;8.80;83.90;;;;;;4994141;28;20820;-49
2022/02/04 18:40:41;;;;;;;2.90;1.20;;;8.80;83.80;;;;;;4999930;28;20462;-48
2022/02/04 18:45:42;;;;;;;1.47;1.37;;;8.80;83.70;;;;;;4998420;28;20460;-47
2022/02/04 18:48:15;;;;;;;0.93;0.83;;;8.80;83.90;;;;;;4999781;28;20533;-48
2022/02/04 18:53:34;;;;;;;1.57;1.47;;;8.80;83.90;;;;;;5001800;28;20491;-48
2022/02/04 18:56:33;;;;;;;0.90;0.90;;;8.90;84.10;;;;;;5000634;28;20556;-48
2022/02/04 18:59:00;;;;;;;1.70;1.60;;;8.90;84.90;;;;;;4992800;28;20494;-48
2022/02/04 19:01:28;;;;;;;1.37;1.27;;;8.90;85.20;;;;;;4994797;28;20465;-48
2022/02/04 19:04:00;;;;;;;1.03;0.97;;;8.90;86.10;;;;;;4991443;28;21409;-49
2022/02/04 19:06:30;;;;;;;1.43;1.33;;;8.90;87.00;;;;;;5000712;28;20462;-50
2022/02/04 19:09:00;;;;;;;3.03;1.37;;;8.80;87.70;;;;;;4997469;28;20552;-50
2022/02/04 19:11:50;;;;;;;1.40;1.30;;;8.80;87.80;;;;;;4998788;28;20474;-50
2022/02/04 19:15:20;;;;;;;1.60;1.33;;;8.80;88.10;;;;;;4995197;28;21002;-50
2022/02/04 19:17:11;;;;;;;2.33;1.40;;;8.80;88.40;;;;;;4993792;28;20484;-50
2022/02/04 19:24:46;;;;;;;0.83;0.83;;;8.60;83.70;;;;;;5001881;28;20461;-49
2022/02/04 19:27:15;;;;;;;0.77;0.70;;;8.60;82.50;;;;;;5001632;28;20473;-49
2022/02/04 19:29:47;;;;;;;0.60;0.60;;;8.50;82.00;;;;;;5001356;28;20476;-49
2022/02/04 19:32:14;;;;;;;0.70;0.70;;;8.40;82.70;;;;;;4998186;28;20650;-50
2022/02/04 19:34:41;;;;;;;1.27;1.17;;;8.40;82.10;;;;;;4993088;28;20477;-49
2022/02/04 19:37:08;;;;;;;1.30;1.20;;;8.40;82.10;;;;;;4993622;28;20901;-49
2022/02/04 19:39:35;;;;;;;1.10;1.00;;;8.30;82.20;;;;;;4990091;28;20521;-49
2022/02/04 19:42:07;;;;;;;1.00;1.00;;;8.20;80.60;;;;;;4996189;28;20489;-49
2022/02/04 19:44:36;;;;;;;1.20;1.10;;;8.20;80.50;;;;;;5020650;28;20461;-49
2022/02/04 19:47:10;;;;;;;1.87;1.00;;;8.00;79.50;;;;;;5002720;28;20473;-49
2022/02/04 19:49:49;;;;;;;1.10;1.00;;;7.90;79.20;;;;;;4992884;28;20461;-49
2022/02/04 19:52:24;;;;;;;0.80;0.80;;;7.90;78.70;;;;;;5000154;28;20536;-49
2022/02/04 20:24:54;;;;;;;0.97;0.97;;;7.20;79.00;;;;;;4992216;28;20469;-50